sensor_id;sensor_type;location;lat;lon;timestamp;pressure;altitude;pressure_sealevel;temperature;humidity
27864;BME280;15980;51.092;13.916;2022-11-20T00:00:41;98317.06;;;-6.10;85.94
27864;BME280;15980;51.092;13.916;2022-11-20T00:05:46;98314.75;;;-6.07;86.35
27864;BME280;15980;51.092;13.916;2022-11-20T00:10:51;98322.25;;;-5.87;87.03
27864;BME280;15980;51.092;13.916;2022-11-20T00:16:03;98315.81;;;-5.69;87.75
27864;BME280;15980;51.092;13.916;2022-11-20T00:21:14;98301.00;;;-5.60;86.49
27864;BME280;15980;51.092;13.916;2022-11-20T00:26:21;98298.47;;;-5.50;87.47
27864;BME280;15980;51.092;13.916;2022-11-20T00:31:29;98320.44;;;-5.48;86.91
27864;BME280;15980;51.092;13.916;2022-11-20T00:36:35;98321.47;;;-5.49;86.73
27864;BME280;15980;51.092;13.916;2022-11-20T00:41:41;98321.03;;;-5.62;85.68
27864;BME280;15980;51.092;13.916;2022-11-20T00:46:48;98330.22;;;-5.70;85.71
27864;BME280;15980;51.092;13.916;2022-11-20T00:51:53;98323.19;;;-5.76;85.77
27864;BME280;15980;51.092;13.916;2022-11-20T00:56:58;98325.13;;;-5.72;86.94
27864;BME280;15980;51.092;13.916;2022-11-20T01:02:05;98327.41;;;-5.63;86.82
27864;BME280;15980;51.092;13.916;2022-11-20T01:07:10;98334.78;;;-5.71;85.92
27864;BME280;15980;51.092;13.916;2022-11-20T01:12:15;98331.53;;;-5.73;86.57
27864;BME280;15980;51.092;13.916;2022-11-20T01:17:23;98316.81;;;-5.58;87.29
27864;BME280;15980;51.092;13.916;2022-11-20T01:22:28;98328.19;;;-5.46;87.51
27864;BME280;15980;51.092;13.916;2022-11-20T01:27:32;98324.28;;;-5.39;87.35
27864;BME280;15980;51.092;13.916;2022-11-20T01:32:40;98319.25;;;-5.35;87.29
27864;BME280;15980;51.092;13.916;2022-11-20T01:37:45;98315.53;;;-5.34;87.01
27864;BME280;15980;51.092;13.916;2022-11-20T01:42:58;98310.78;;;-5.49;86.05
27864;BME280;15980;51.092;13.916;2022-11-20T01:48:23;98308.47;;;-5.62;86.11
27864;BME280;15980;51.092;13.916;2022-11-20T01:53:32;98301.41;;;-5.68;86.17
27864;BME280;15980;51.092;13.916;2022-11-20T01:58:42;98297.91;;;-5.69;86.50
27864;BME280;15980;51.092;13.916;2022-11-20T02:03:51;98304.09;;;-5.85;85.46
27864;BME280;15980;51.092;13.916;2022-11-20T02:08:57;98300.56;;;-5.90;85.71
27864;BME280;15980;51.092;13.916;2022-11-20T02:14:02;98301.00;;;-5.98;85.75
27864;BME280;15980;51.092;13.916;2022-11-20T02:19:15;98297.19;;;-6.03;85.88
27864;BME280;15980;51.092;13.916;2022-11-20T02:24:24;98287.56;;;-6.04;85.76
27864;BME280;15980;51.092;13.916;2022-11-20T02:29:33;98285.38;;;-6.07;85.79
27864;BME280;15980;51.092;13.916;2022-11-20T02:34:41;98283.16;;;-6.10;85.65
27864;BME280;15980;51.092;13.916;2022-11-20T02:39:50;98291.19;;;-6.10;86.29
27864;BME280;15980;51.092;13.916;2022-11-20T02:44:55;98285.59;;;-6.08;85.94
27864;BME280;15980;51.092;13.916;2022-11-20T02:50:00;98292.22;;;-6.11;85.98
27864;BME280;15980;51.092;13.916;2022-11-20T02:55:08;98291.09;;;-6.15;85.83
27864;BME280;15980;51.092;13.916;2022-11-20T03:00:14;98293.59;;;-6.25;85.22
27864;BME280;15980;51.092;13.916;2022-11-20T03:05:19;98291.34;;;-6.33;85.17
27864;BME280;15980;51.092;13.916;2022-11-20T03:10:27;98290.44;;;-6.39;85.28
27864;BME280;15980;51.092;13.916;2022-11-20T03:15:32;98283.72;;;-6.41;85.51
27864;BME280;15980;51.092;13.916;2022-11-20T03:20:37;98282.13;;;-6.42;85.55
27864;BME280;15980;51.092;13.916;2022-11-20T03:25:44;98278.56;;;-6.48;85.43
27864;BME280;15980;51.092;13.916;2022-11-20T03:30:49;98275.75;;;-6.53;85.01
27864;BME280;15980;51.092;13.916;2022-11-20T03:35:54;98257.56;;;-6.56;85.35
27864;BME280;15980;51.092;13.916;2022-11-20T03:41:03;98272.53;;;-6.55;85.36
27864;BME280;15980;51.092;13.916;2022-11-20T03:46:09;98274.38;;;-6.55;85.34
27864;BME280;15980;51.092;13.916;2022-11-20T03:51:15;98275.31;;;-6.50;85.76
27864;BME280;15980;51.092;13.916;2022-11-20T03:56:24;98273.34;;;-6.54;85.47
27864;BME280;15980;51.092;13.916;2022-11-20T04:01:31;98277.88;;;-6.55;85.52
27864;BME280;15980;51.092;13.916;2022-11-20T04:06:37;98254.91;;;-6.56;85.60
27864;BME280;15980;51.092;13.916;2022-11-20T04:11:45;98260.56;;;-6.52;85.46
27864;BME280;15980;51.092;13.916;2022-11-20T04:16:50;98259.50;;;-6.51;85.75
27864;BME280;15980;51.092;13.916;2022-11-20T04:21:54;98257.31;;;-6.54;85.74
27864;BME280;15980;51.092;13.916;2022-11-20T04:27:03;98247.56;;;-6.49;85.81
27864;BME280;15980;51.092;13.916;2022-11-20T04:32:08;98242.69;;;-6.52;85.83
27864;BME280;15980;51.092;13.916;2022-11-20T04:37:13;98234.22;;;-6.49;86.23
27864;BME280;15980;51.092;13.916;2022-11-20T04:42:20;98233.44;;;-6.49;86.07
27864;BME280;15980;51.092;13.916;2022-11-20T04:47:34;98234.69;;;-6.52;85.72
27864;BME280;15980;51.092;13.916;2022-11-20T04:52:39;98233.63;;;-6.51;86.14
27864;BME280;15980;51.092;13.916;2022-11-20T04:57:49;98234.88;;;-6.42;87.05
27864;BME280;15980;51.092;13.916;2022-11-20T05:02:54;98239.16;;;-6.41;86.60
27864;BME280;15980;51.092;13.916;2022-11-20T05:07:59;98248.78;;;-6.40;86.70
27864;BME280;15980;51.092;13.916;2022-11-20T05:13:06;98241.28;;;-6.43;86.42
27864;BME280;15980;51.092;13.916;2022-11-20T05:18:11;98250.41;;;-6.39;86.82
27864;BME280;15980;51.092;13.916;2022-11-20T05:23:16;98247.41;;;-6.42;86.52
27864;BME280;15980;51.092;13.916;2022-11-20T05:28:24;98236.50;;;-6.41;86.70
27864;BME280;15980;51.092;13.916;2022-11-20T05:33:30;98247.16;;;-6.41;86.57
27864;BME280;15980;51.092;13.916;2022-11-20T05:38:35;98239.72;;;-6.39;86.83
27864;BME280;15980;51.092;13.916;2022-11-20T05:43:44;98236.00;;;-6.38;87.05
27864;BME280;15980;51.092;13.916;2022-11-20T05:48:49;98229.38;;;-6.35;87.67
27864;BME280;15980;51.092;13.916;2022-11-20T05:53:56;98222.09;;;-6.40;86.73
27864;BME280;15980;51.092;13.916;2022-11-20T05:59:03;98223.56;;;-6.32;88.00
27864;BME280;15980;51.092;13.916;2022-11-20T06:04:08;98214.31;;;-6.24;88.06
27864;BME280;15980;51.092;13.916;2022-11-20T06:09:13;98214.56;;;-6.26;87.45
27864;BME280;15980;51.092;13.916;2022-11-20T06:14:20;98208.59;;;-6.33;87.09
27864;BME280;15980;51.092;13.916;2022-11-20T06:19:25;98214.91;;;-6.39;87.03
27864;BME280;15980;51.092;13.916;2022-11-20T06:24:30;98223.41;;;-6.42;86.86
27864;BME280;15980;51.092;13.916;2022-11-20T06:29:38;98220.41;;;-6.46;86.82
27864;BME280;15980;51.092;13.916;2022-11-20T06:34:42;98210.94;;;-6.37;87.35
27864;BME280;15980;51.092;13.916;2022-11-20T06:39:48;98216.44;;;-6.26;88.14
27864;BME280;15980;51.092;13.916;2022-11-20T06:44:55;98213.97;;;-6.11;88.21
27864;BME280;15980;51.092;13.916;2022-11-20T06:50:00;98207.25;;;-5.97;88.38
27864;BME280;15980;51.092;13.916;2022-11-20T06:55:06;98199.41;;;-5.82;88.42
27864;BME280;15980;51.092;13.916;2022-11-20T07:00:15;98195.31;;;-5.68;88.35
27864;BME280;15980;51.092;13.916;2022-11-20T07:05:20;98192.63;;;-5.51;88.97
27864;BME280;15980;51.092;13.916;2022-11-20T07:10:25;98188.00;;;-5.33;88.29
27864;BME280;15980;51.092;13.916;2022-11-20T07:15:33;98187.56;;;-5.25;88.06
27864;BME280;15980;51.092;13.916;2022-11-20T07:20:38;98196.69;;;-5.21;87.88
27864;BME280;15980;51.092;13.916;2022-11-20T07:25:43;98183.00;;;-5.03;88.34
27864;BME280;15980;51.092;13.916;2022-11-20T07:30:53;98186.66;;;-4.82;88.45
27864;BME280;15980;51.092;13.916;2022-11-20T07:35:58;98179.84;;;-4.68;88.32
27864;BME280;15980;51.092;13.916;2022-11-20T07:41:04;98175.94;;;-4.55;88.42
27864;BME280;15980;51.092;13.916;2022-11-20T07:46:11;98181.09;;;-4.44;88.11
27864;BME280;15980;51.092;13.916;2022-11-20T07:51:16;98173.50;;;-4.25;88.64
27864;BME280;15980;51.092;13.916;2022-11-20T07:56:21;98169.31;;;-4.11;87.89
27864;BME280;15980;51.092;13.916;2022-11-20T08:01:29;98178.75;;;-3.98;88.06
27864;BME280;15980;51.092;13.916;2022-11-20T08:06:34;98169.72;;;-3.87;87.81
27864;BME280;15980;51.092;13.916;2022-11-20T08:11:39;98181.59;;;-3.72;87.15
27864;BME280;15980;51.092;13.916;2022-11-20T08:16:59;98169.31;;;-3.63;87.61
27864;BME280;15980;51.092;13.916;2022-11-20T08:22:04;98169.88;;;-3.51;87.46
27864;BME280;15980;51.092;13.916;2022-11-20T08:27:09;98162.97;;;-3.42;87.17
27864;BME280;15980;51.092;13.916;2022-11-20T08:32:16;98164.88;;;-3.32;87.55
27864;BME280;15980;51.092;13.916;2022-11-20T08:37:21;98169.19;;;-3.26;86.80
27864;BME280;15980;51.092;13.916;2022-11-20T08:42:26;98169.50;;;-3.07;87.37
27864;BME280;15980;51.092;13.916;2022-11-20T08:47:34;98159.88;;;-2.98;86.73
27864;BME280;15980;51.092;13.916;2022-11-20T08:52:39;98160.44;;;-2.86;86.55
27864;BME280;15980;51.092;13.916;2022-11-20T08:57:44;98164.19;;;-2.72;86.33
27864;BME280;15980;51.092;13.916;2022-11-20T09:02:53;98151.56;;;-2.66;85.81
27864;BME280;15980;51.092;13.916;2022-11-20T09:08:00;98137.91;;;-2.55;85.69
27864;BME280;15980;51.092;13.916;2022-11-20T09:13:06;98137.09;;;-2.50;85.08
27864;BME280;15980;51.092;13.916;2022-11-20T09:18:13;98128.47;;;-2.37;84.85
27864;BME280;15980;51.092;13.916;2022-11-20T09:23:18;98140.03;;;-2.31;84.36
27864;BME280;15980;51.092;13.916;2022-11-20T09:28:23;98134.63;;;-2.21;84.71
27864;BME280;15980;51.092;13.916;2022-11-20T09:33:31;98129.25;;;-2.11;83.94
27864;BME280;15980;51.092;13.916;2022-11-20T09:38:35;98142.16;;;-2.03;83.15
27864;BME280;15980;51.092;13.916;2022-11-20T09:43:49;98143.19;;;-1.88;83.16
27864;BME280;15980;51.092;13.916;2022-11-20T09:49:11;98143.41;;;-1.80;82.82
27864;BME280;15980;51.092;13.916;2022-11-20T09:54:22;98135.59;;;-1.76;82.08
27864;BME280;15980;51.092;13.916;2022-11-20T09:59:36;98124.31;;;-1.68;81.72
27864;BME280;15980;51.092;13.916;2022-11-20T10:04:51;98120.78;;;-1.59;81.21
27864;BME280;15980;51.092;13.916;2022-11-20T10:09:58;98120.97;;;-1.45;80.98
27864;BME280;15980;51.092;13.916;2022-11-20T10:15:14;98112.56;;;-1.33;80.70
27864;BME280;15980;51.092;13.916;2022-11-20T10:20:39;98119.81;;;-1.23;80.14
27864;BME280;15980;51.092;13.916;2022-11-20T10:25:54;98117.59;;;-1.16;79.26
27864;BME280;15980;51.092;13.916;2022-11-20T10:31:03;98104.63;;;-1.09;79.31
27864;BME280;15980;51.092;13.916;2022-11-20T10:36:17;98103.53;;;-1.03;78.60
27864;BME280;15980;51.092;13.916;2022-11-20T10:41:26;98105.34;;;-0.93;78.62
27864;BME280;15980;51.092;13.916;2022-11-20T10:46:38;98107.97;;;-0.88;76.43
27864;BME280;15980;51.092;13.916;2022-11-20T10:51:56;98110.63;;;-0.78;73.89
27864;BME280;15980;51.092;13.916;2022-11-20T10:57:10;98091.66;;;-0.63;74.99
27864;BME280;15980;51.092;13.916;2022-11-20T11:02:21;98095.84;;;-0.52;74.88
27864;BME280;15980;51.092;13.916;2022-11-20T11:07:33;98100.56;;;-0.34;75.05
27864;BME280;15980;51.092;13.916;2022-11-20T11:12:43;98100.63;;;0.14;74.29
27864;BME280;15980;51.092;13.916;2022-11-20T11:17:49;98090.31;;;0.40;73.26
27864;BME280;15980;51.092;13.916;2022-11-20T11:22:58;98081.81;;;0.52;72.49
27864;BME280;15980;51.092;13.916;2022-11-20T11:28:05;98065.69;;;0.47;73.83
27864;BME280;15980;51.092;13.916;2022-11-20T11:33:25;98051.72;;;0.40;75.04
27864;BME280;15980;51.092;13.916;2022-11-20T11:38:35;98060.44;;;0.55;74.65
27864;BME280;15980;51.092;13.916;2022-11-20T11:43:51;98057.16;;;0.58;74.17
27864;BME280;15980;51.092;13.916;2022-11-20T11:49:16;98028.78;;;0.61;74.07
27864;BME280;15980;51.092;13.916;2022-11-20T11:54:28;98031.16;;;0.25;74.89
27864;BME280;15980;51.092;13.916;2022-11-20T11:59:54;98013.94;;;0.40;76.25
27864;BME280;15980;51.092;13.916;2022-11-20T12:05:14;98010.66;;;0.43;75.04
27864;BME280;15980;51.092;13.916;2022-11-20T12:10:36;97994.22;;;0.44;74.65
27864;BME280;15980;51.092;13.916;2022-11-20T12:15:45;97998.78;;;0.25;75.09
27864;BME280;15980;51.092;13.916;2022-11-20T12:21:02;97994.22;;;0.44;74.93
27864;BME280;15980;51.092;13.916;2022-11-20T12:26:19;98000.03;;;0.51;75.10
27864;BME280;15980;51.092;13.916;2022-11-20T12:31:35;98008.06;;;0.56;75.28
27864;BME280;15980;51.092;13.916;2022-11-20T12:36:49;98001.84;;;0.75;74.60
27864;BME280;15980;51.092;13.916;2022-11-20T12:42:23;97988.94;;;0.90;74.97
27864;BME280;15980;51.092;13.916;2022-11-20T12:53:27;97995.94;;;0.91;75.93
27864;BME280;15980;51.092;13.916;2022-11-20T12:58:43;97996.97;;;0.58;76.39
27864;BME280;15980;51.092;13.916;2022-11-20T13:03:54;98017.34;;;0.08;77.97
27864;BME280;15980;51.092;13.916;2022-11-20T13:09:03;98008.69;;;0.29;79.14
27864;BME280;15980;51.092;13.916;2022-11-20T13:14:24;98013.28;;;0.29;78.12
27864;BME280;15980;51.092;13.916;2022-11-20T13:19:31;98003.19;;;0.58;78.48
27864;BME280;15980;51.092;13.916;2022-11-20T13:24:36;98009.13;;;0.74;77.48
27864;BME280;15980;51.092;13.916;2022-11-20T13:29:45;97985.44;;;0.90;77.94
27864;BME280;15980;51.092;13.916;2022-11-20T13:34:54;97978.72;;;0.31;79.63
27864;BME280;15980;51.092;13.916;2022-11-20T13:40:20;97984.78;;;1.12;78.95
27864;BME280;15980;51.092;13.916;2022-11-20T13:45:30;97962.84;;;1.00;78.11
27864;BME280;15980;51.092;13.916;2022-11-20T13:50:48;97968.81;;;0.64;77.53
27864;BME280;15980;51.092;13.916;2022-11-20T13:56:00;97970.72;;;0.45;79.91
27864;BME280;15980;51.092;13.916;2022-11-20T14:01:15;97968.06;;;0.77;79.60
27864;BME280;15980;51.092;13.916;2022-11-20T14:06:26;97964.41;;;0.68;78.28
27864;BME280;15980;51.092;13.916;2022-11-20T14:11:33;97977.47;;;0.42;79.31
27864;BME280;15980;51.092;13.916;2022-11-20T14:16:40;97983.59;;;0.10;80.63
27864;BME280;15980;51.092;13.916;2022-11-20T14:21:46;97979.19;;;-0.05;81.10
27864;BME280;15980;51.092;13.916;2022-11-20T14:26:52;97978.44;;;0.51;79.89
27864;BME280;15980;51.092;13.916;2022-11-20T14:32:00;97973.91;;;0.28;79.01
27864;BME280;15980;51.092;13.916;2022-11-20T14:37:10;97969.09;;;0.25;81.03
27864;BME280;15980;51.092;13.916;2022-11-20T14:42:19;97986.19;;;-0.04;80.36
27864;BME280;15980;51.092;13.916;2022-11-20T14:47:29;97985.84;;;0.03;79.52
27864;BME280;15980;51.092;13.916;2022-11-20T14:52:35;97983.44;;;-0.46;80.79
27864;BME280;15980;51.092;13.916;2022-11-20T14:57:40;97979.03;;;-0.37;81.56
27864;BME280;15980;51.092;13.916;2022-11-20T15:02:48;97963.75;;;-0.47;81.14
27864;BME280;15980;51.092;13.916;2022-11-20T15:08:06;97967.19;;;-0.65;80.80
27864;BME280;15980;51.092;13.916;2022-11-20T15:13:13;97961.25;;;-0.91;81.87
27864;BME280;15980;51.092;13.916;2022-11-20T15:18:23;97956.00;;;-1.06;82.70
27864;BME280;15980;51.092;13.916;2022-11-20T15:23:31;97964.78;;;-1.24;83.19
27864;BME280;15980;51.092;13.916;2022-11-20T15:28:39;97951.66;;;-1.36;83.75
27864;BME280;15980;51.092;13.916;2022-11-20T15:33:47;97952.34;;;-1.54;84.91
27864;BME280;15980;51.092;13.916;2022-11-20T15:38:52;97952.44;;;-1.65;84.94
27864;BME280;15980;51.092;13.916;2022-11-20T15:43:56;97949.53;;;-1.73;85.85
27864;BME280;15980;51.092;13.916;2022-11-20T15:49:04;97946.34;;;-1.85;86.02
27864;BME280;15980;51.092;13.916;2022-11-20T15:54:11;97945.63;;;-1.96;85.88
27864;BME280;15980;51.092;13.916;2022-11-20T15:59:16;97950.78;;;-2.05;86.43
27864;BME280;15980;51.092;13.916;2022-11-20T16:04:24;97950.53;;;-2.08;87.10
27864;BME280;15980;51.092;13.916;2022-11-20T16:09:29;97965.88;;;-2.19;87.16
27864;BME280;15980;51.092;13.916;2022-11-20T16:14:34;97965.63;;;-2.28;87.39
27864;BME280;15980;51.092;13.916;2022-11-20T16:19:53;97957.34;;;-2.36;89.28
27864;BME280;15980;51.092;13.916;2022-11-20T16:24:58;97967.56;;;-2.38;88.27
27864;BME280;15980;51.092;13.916;2022-11-20T16:30:04;97964.91;;;-2.48;88.10
27864;BME280;15980;51.092;13.916;2022-11-20T16:35:12;97961.72;;;-2.61;87.93
27864;BME280;15980;51.092;13.916;2022-11-20T16:40:17;97960.66;;;-2.65;88.32
27864;BME280;15980;51.092;13.916;2022-11-20T16:45:22;97976.25;;;-2.72;88.05
27864;BME280;15980;51.092;13.916;2022-11-20T16:50:32;97975.69;;;-2.64;89.22
27864;BME280;15980;51.092;13.916;2022-11-20T16:55:37;97970.59;;;-2.65;88.82
27864;BME280;15980;51.092;13.916;2022-11-20T17:00:42;97972.75;;;-2.67;89.36
27864;BME280;15980;51.092;13.916;2022-11-20T17:05:53;97969.25;;;-2.68;88.96
27864;BME280;15980;51.092;13.916;2022-11-20T17:11:04;97966.84;;;-2.69;89.16
27864;BME280;15980;51.092;13.916;2022-11-20T17:16:10;97960.94;;;-2.71;89.82
27864;BME280;15980;51.092;13.916;2022-11-20T17:21:18;97964.97;;;-2.69;88.62
27864;BME280;15980;51.092;13.916;2022-11-20T17:26:23;97962.53;;;-2.70;88.85
27864;BME280;15980;51.092;13.916;2022-11-20T17:31:29;97956.09;;;-2.64;89.57
27864;BME280;15980;51.092;13.916;2022-11-20T17:36:37;97952.59;;;-2.65;89.02
27864;BME280;15980;51.092;13.916;2022-11-20T17:41:46;97952.06;;;-2.72;88.80
27864;BME280;15980;51.092;13.916;2022-11-20T17:47:10;97945.38;;;-2.74;89.68
27864;BME280;15980;51.092;13.916;2022-11-20T17:52:18;97946.97;;;-2.73;89.19
27864;BME280;15980;51.092;13.916;2022-11-20T17:57:23;97954.00;;;-2.82;88.88
27864;BME280;15980;51.092;13.916;2022-11-20T18:02:40;97940.81;;;-2.79;89.68
27864;BME280;15980;51.092;13.916;2022-11-20T18:07:51;97941.34;;;-2.77;89.70
27864;BME280;15980;51.092;13.916;2022-11-20T18:12:56;97932.25;;;-2.81;89.21
27864;BME280;15980;51.092;13.916;2022-11-20T18:18:01;97922.56;;;-2.82;89.12
27864;BME280;15980;51.092;13.916;2022-11-20T18:23:08;97919.38;;;-2.84;89.13
27864;BME280;15980;51.092;13.916;2022-11-20T18:28:13;97922.88;;;-2.89;88.42
27864;BME280;15980;51.092;13.916;2022-11-20T18:33:21;97920.19;;;-3.04;87.83
27864;BME280;15980;51.092;13.916;2022-11-20T18:38:31;97928.00;;;-3.12;88.11
27864;BME280;15980;51.092;13.916;2022-11-20T18:43:36;97926.94;;;-3.22;88.05
27864;BME280;15980;51.092;13.916;2022-11-20T18:48:53;97925.31;;;-3.23;87.96
27864;BME280;15980;51.092;13.916;2022-11-20T18:54:01;97921.56;;;-3.27;88.26
27864;BME280;15980;51.092;13.916;2022-11-20T18:59:07;97928.81;;;-3.32;88.33
27864;BME280;15980;51.092;13.916;2022-11-20T19:04:14;97930.19;;;-3.40;87.73
27864;BME280;15980;51.092;13.916;2022-11-20T19:09:22;97918.66;;;-3.45;88.16
27864;BME280;15980;51.092;13.916;2022-11-20T19:14:27;97924.53;;;-3.59;87.95
27864;BME280;15980;51.092;13.916;2022-11-20T19:19:32;97920.78;;;-3.68;88.01
27864;BME280;15980;51.092;13.916;2022-11-20T19:24:40;97915.66;;;-3.80;87.71
27864;BME280;15980;51.092;13.916;2022-11-20T19:29:45;97917.50;;;-3.95;87.08
27864;BME280;15980;51.092;13.916;2022-11-20T19:34:51;97909.19;;;-4.09;87.33
27864;BME280;15980;51.092;13.916;2022-11-20T19:39:59;97901.13;;;-4.19;87.11
27864;BME280;15980;51.092;13.916;2022-11-20T19:45:07;97899.25;;;-4.24;87.63
27864;BME280;15980;51.092;13.916;2022-11-20T19:50:12;97882.91;;;-4.27;87.65
27864;BME280;15980;51.092;13.916;2022-11-20T19:55:20;97889.31;;;-4.28;88.05
27864;BME280;15980;51.092;13.916;2022-11-20T20:00:25;97901.88;;;-4.34;87.62
27864;BME280;15980;51.092;13.916;2022-11-20T20:05:33;97893.56;;;-4.43;87.49
27864;BME280;15980;51.092;13.916;2022-11-20T20:10:40;97895.94;;;-4.51;87.30
27864;BME280;15980;51.092;13.916;2022-11-20T20:15:45;97883.06;;;-4.59;87.39
27864;BME280;15980;51.092;13.916;2022-11-20T20:20:50;97875.56;;;-4.62;87.27
27864;BME280;15980;51.092;13.916;2022-11-20T20:25:58;97869.38;;;-4.68;87.57
27864;BME280;15980;51.092;13.916;2022-11-20T20:31:05;97882.50;;;-4.71;87.90
27864;BME280;15980;51.092;13.916;2022-11-20T20:36:15;97872.34;;;-4.64;88.13
27864;BME280;15980;51.092;13.916;2022-11-20T20:41:23;97870.00;;;-4.40;88.75
27864;BME280;15980;51.092;13.916;2022-11-20T20:46:30;97871.94;;;-3.95;90.38
27864;BME280;15980;51.092;13.916;2022-11-20T20:51:36;97856.97;;;-3.40;91.61
27864;BME280;15980;51.092;13.916;2022-11-20T20:56:43;97838.63;;;-3.08;91.08
27864;BME280;15980;51.092;13.916;2022-11-20T21:01:48;97837.47;;;-2.81;91.12
27864;BME280;15980;51.092;13.916;2022-11-20T21:06:53;97826.94;;;-2.68;90.40
27864;BME280;15980;51.092;13.916;2022-11-20T21:12:00;97815.91;;;-2.56;90.40
27864;BME280;15980;51.092;13.916;2022-11-20T21:17:05;97809.94;;;-2.48;90.04
27864;BME280;15980;51.092;13.916;2022-11-20T21:22:14;97813.47;;;-2.53;89.48
27864;BME280;15980;51.092;13.916;2022-11-20T21:27:21;97796.47;;;-2.43;89.65
27864;BME280;15980;51.092;13.916;2022-11-20T21:32:26;97759.31;;;-2.31;90.54
27864;BME280;15980;51.092;13.916;2022-11-20T21:37:31;97760.78;;;-2.09;90.13
27864;BME280;15980;51.092;13.916;2022-11-20T21:42:41;97760.38;;;-1.93;89.17
27864;BME280;15980;51.092;13.916;2022-11-20T21:47:48;97752.16;;;-1.77;88.86
27864;BME280;15980;51.092;13.916;2022-11-20T21:52:54;97739.22;;;-1.70;87.93
27864;BME280;15980;51.092;13.916;2022-11-20T21:58:01;97734.75;;;-1.56;88.03
27864;BME280;15980;51.092;13.916;2022-11-20T22:03:06;97724.38;;;-1.44;87.78
27864;BME280;15980;51.092;13.916;2022-11-20T22:08:11;97713.28;;;-1.37;87.42
27864;BME280;15980;51.092;13.916;2022-11-20T22:13:19;97712.66;;;-1.29;86.86
27864;BME280;15980;51.092;13.916;2022-11-20T22:18:40;97706.66;;;-1.21;86.62
27864;BME280;15980;51.092;13.916;2022-11-20T22:23:46;97697.94;;;-1.13;86.47
27864;BME280;15980;51.092;13.916;2022-11-20T22:28:55;97691.91;;;-1.05;86.33
27864;BME280;15980;51.092;13.916;2022-11-20T22:34:01;97682.59;;;-0.93;86.06
27864;BME280;15980;51.092;13.916;2022-11-20T22:39:06;97667.69;;;-0.86;85.92
27864;BME280;15980;51.092;13.916;2022-11-20T22:44:14;97680.09;;;-0.90;84.86
27864;BME280;15980;51.092;13.916;2022-11-20T22:49:19;97666.44;;;-0.75;85.52
27864;BME280;15980;51.092;13.916;2022-11-20T22:54:24;97656.19;;;-0.73;84.88
27864;BME280;15980;51.092;13.916;2022-11-20T22:59:32;97651.31;;;-0.71;84.80
27864;BME280;15980;51.092;13.916;2022-11-20T23:04:39;97649.63;;;-0.67;84.76
27864;BME280;15980;51.092;13.916;2022-11-20T23:09:45;97645.47;;;-0.59;84.89
27864;BME280;15980;51.092;13.916;2022-11-20T23:14:52;97634.88;;;-0.55;84.26
27864;BME280;15980;51.092;13.916;2022-11-20T23:19:57;97629.50;;;-0.55;84.52
27864;BME280;15980;51.092;13.916;2022-11-20T23:25:02;97623.09;;;-0.59;85.15
27864;BME280;15980;51.092;13.916;2022-11-20T23:30:11;97603.19;;;-0.45;85.92
27864;BME280;15980;51.092;13.916;2022-11-20T23:35:16;97602.34;;;-0.59;87.84
27864;BME280;15980;51.092;13.916;2022-11-20T23:40:21;97589.72;;;-0.45;87.85
27864;BME280;15980;51.092;13.916;2022-11-20T23:45:28;97578.13;;;-0.45;88.81
27864;BME280;15980;51.092;13.916;2022-11-20T23:50:34;97569.81;;;-0.30;89.61
27864;BME280;15980;51.092;13.916;2022-11-20T23:55:39;97570.72;;;-0.21;89.21
